createdAt,value
2019-05-01T00:02:21.269Z,51.93
2019-05-01T00:05:30.804Z,55.40
2019-05-01T00:08:36.021Z,57.80
2019-05-01T00:11:42.472Z,58.57
2019-05-01T00:14:49.703Z,55.30
2019-05-01T00:17:55.095Z,52.47
2019-05-01T00:21:00.632Z,57.13
2019-05-01T00:24:07.956Z,58.00
2019-05-01T00:27:12.964Z,54.33
2019-05-01T00:30:29.776Z,52.43
2019-05-01T00:33:29.702Z,57.70
2019-05-01T00:36:34.968Z,57.00
2019-05-01T00:39:40.186Z,53.73
2019-05-01T00:42:45.427Z,57.40
2019-05-01T00:45:50.733Z,55.20
2019-05-01T00:48:58.257Z,57.17
2019-05-01T00:52:03.384Z,57.20
2019-05-01T00:55:26.275Z,62.10
2019-05-01T00:58:39.533Z,58.23
2019-05-01T01:02:07.511Z,56.77
2019-05-01T01:05:12.891Z,58.13
2019-05-01T01:08:18.021Z,59.07
2019-05-01T01:11:24.837Z,60.03
2019-05-01T01:14:31.063Z,54.43
2019-05-01T01:17:36.174Z,57.10
2019-05-01T01:20:41.379Z,55.07
2019-05-01T01:23:46.628Z,53.43
2019-05-01T01:26:51.751Z,57.23
2019-05-01T01:29:57.167Z,59.93
2019-05-01T01:33:02.364Z,68.03
2019-05-01T01:36:07.591Z,55.10
2019-05-01T01:39:12.748Z,60.10
2019-05-01T01:42:18.135Z,57.90
2019-05-01T01:45:33.880Z,63.83
2019-05-01T01:48:39.225Z,56.83
2019-05-01T01:51:44.600Z,59.93
2019-05-01T01:54:49.946Z,58.23
2019-05-01T01:57:55.661Z,56.43
2019-05-01T02:01:10.807Z,56.37
2019-05-01T02:04:46.961Z,62.10
2019-05-01T02:07:52.593Z,56.83
2019-05-01T02:10:58.941Z,55.30
2019-05-01T02:14:04.116Z,59.37
2019-05-01T02:17:09.247Z,54.50
2019-05-01T02:20:16.522Z,58.27
2019-05-01T02:23:21.796Z,59.30
2019-05-01T02:26:31.123Z,57.40
2019-05-01T02:29:42.360Z,53.23
2019-05-01T02:32:48.294Z,53.53
2019-05-01T02:35:53.662Z,54.63
2019-05-01T02:38:59.961Z,50.37
2019-05-01T02:42:06.762Z,57.30
2019-05-01T02:45:12.031Z,47.93
2019-05-01T02:48:22.991Z,52.20
2019-05-01T02:51:28.808Z,52.97
2019-05-01T02:54:36.241Z,48.93
2019-05-01T02:57:42.926Z,49.67
2019-05-01T03:00:48.327Z,50.30
2019-05-01T03:03:55.948Z,48.43
2019-05-01T03:07:02.783Z,53.70
2019-05-01T03:10:10.152Z,50.37
2019-05-01T03:13:15.614Z,47.73
2019-05-01T03:16:22.442Z,51.90
2019-05-01T03:19:45.972Z,50.57
2019-05-01T03:23:10.795Z,48.53
2019-05-01T03:26:16.730Z,50.27
2019-05-01T03:29:22.330Z,50.50
2019-05-01T03:32:27.904Z,50.87
2019-05-01T03:35:33.257Z,48.70
2019-05-01T03:38:38.783Z,48.07
2019-05-01T03:41:44.147Z,54.10
2019-05-01T03:44:49.498Z,49.23
2019-05-01T03:47:56.176Z,48.73
2019-05-01T03:51:01.951Z,51.20
2019-05-01T03:54:08.388Z,50.90
2019-05-01T03:57:14.120Z,51.13
2019-05-01T04:00:25.854Z,49.10
2019-05-01T04:03:35.409Z,47.67
2019-05-01T04:06:40.847Z,51.43
2019-05-01T04:09:46.031Z,51.23
2019-05-01T04:12:51.572Z,50.57
2019-05-01T04:15:57.338Z,47.63
2019-05-01T04:19:06.771Z,47.63
2019-05-01T04:22:13.879Z,47.73
2019-05-01T04:25:21.036Z,52.20
2019-05-01T04:28:43.078Z,52.90
2019-05-01T04:32:01.186Z,51.80
2019-05-01T04:35:26.401Z,52.07
2019-05-01T04:38:31.639Z,49.27
2019-05-01T04:41:37.282Z,55.13
2019-05-01T04:44:45.519Z,50.33
2019-05-01T04:47:51.055Z,54.53
2019-05-01T04:50:56.871Z,56.00
2019-05-01T04:54:03.235Z,53.50
2019-05-01T04:57:08.579Z,49.20
2019-05-01T05:00:13.995Z,49.00
2019-05-01T05:03:21.017Z,43.17
2019-05-01T05:06:26.742Z,43.50
2019-05-01T05:09:46.187Z,47.47
2019-05-01T05:13:06.706Z,47.63
2019-05-01T05:16:29.671Z,42.73
2019-05-01T05:19:34.844Z,42.87
2019-05-01T05:22:40.112Z,49.87
2019-05-01T05:25:45.579Z,42.97
2019-05-01T05:28:54.336Z,47.10
2019-05-01T05:32:02.946Z,48.00
2019-05-01T05:35:09.734Z,47.20
2019-05-01T05:38:35.609Z,44.20
2019-05-01T05:41:42.830Z,48.80
2019-05-01T05:44:49.016Z,50.47
2019-05-01T05:47:54.260Z,47.73
2019-05-01T05:51:26.195Z,51.87
2019-05-01T05:55:02.956Z,46.70
2019-05-01T05:58:34.765Z,54.27
2019-05-01T06:02:11.011Z,58.57
2019-05-01T06:05:28.935Z,46.30
2019-05-01T06:08:37.171Z,58.17
2019-05-01T06:12:13.881Z,48.80
2019-05-01T06:15:42.771Z,53.73
2019-05-01T06:19:09.667Z,59.03
2019-05-01T06:22:35.645Z,49.30
2019-05-01T06:25:43.504Z,45.93
2019-05-01T06:28:48.770Z,47.43
2019-05-01T06:31:58.779Z,48.57
2019-05-01T06:35:03.172Z,45.90
2019-05-01T06:38:13.939Z,44.87
2019-05-01T06:41:21.761Z,42.53
2019-05-01T06:44:44.081Z,44.07
2019-05-01T06:47:55.965Z,38.17
2019-05-01T06:51:20.140Z,36.80
2019-05-01T06:54:27.924Z,43.63
2019-05-01T06:57:33.470Z,36.50
2019-05-01T07:00:43.185Z,43.70
2019-05-01T07:04:02.951Z,42.03
2019-05-01T07:06:55.045Z,39.27
2019-05-01T07:10:01.316Z,37.50
2019-05-01T07:13:06.899Z,38.67
2019-05-01T07:16:12.190Z,38.37
2019-05-01T07:19:19.588Z,37.67
2019-05-01T07:22:25.048Z,39.80
2019-05-01T07:25:30.341Z,36.60
2019-05-01T07:28:36.668Z,46.60
2019-05-01T07:31:43.166Z,38.60
2019-05-01T07:34:48.999Z,35.33
2019-05-01T07:37:57.589Z,41.57
2019-05-01T07:41:03.469Z,40.30
2019-05-01T07:44:35.060Z,34.00
2019-05-01T07:47:41.830Z,36.67
2019-05-01T07:50:47.003Z,37.47
2019-05-01T07:53:52.790Z,31.73
2019-05-01T07:56:58.801Z,39.13
2019-05-01T08:00:08.598Z,32.60
2019-05-01T08:03:13.974Z,35.13
2019-05-01T08:06:21.772Z,33.30
2019-05-01T08:09:26.035Z,36.63
2019-05-01T08:12:31.399Z,32.00
2019-05-01T08:15:38.274Z,34.03
2019-05-01T08:18:58.990Z,34.80
2019-05-01T08:22:26.248Z,30.73
2019-05-01T08:25:33.247Z,37.13
2019-05-01T08:28:57.959Z,32.93
2019-05-01T08:32:11.438Z,35.87
2019-05-01T08:35:18.136Z,34.27
2019-05-01T08:38:23.348Z,31.73
2019-05-01T08:41:31.851Z,36.70
2019-05-01T08:44:51.633Z,35.70
2019-05-01T08:48:14.835Z,34.40
2019-05-01T08:51:20.094Z,45.20
2019-05-01T08:54:28.932Z,39.70
2019-05-01T08:57:34.485Z,40.60
2019-05-01T09:00:41.235Z,37.77
2019-05-01T09:03:49.741Z,42.13
2019-05-01T09:06:54.811Z,38.87
2019-05-01T09:10:00.241Z,37.20
2019-05-01T09:13:07.272Z,39.77
2019-05-01T09:16:12.548Z,33.33
2019-05-01T09:19:17.814Z,37.73
2019-05-01T09:22:24.323Z,38.90
2019-05-01T09:25:39.716Z,47.30
2019-05-01T09:28:51.808Z,43.77
2019-05-01T09:31:58.005Z,41.93
2019-05-01T09:35:15.115Z,40.17
2019-05-01T09:38:10.150Z,41.23
2019-05-01T09:41:15.355Z,45.00
2019-05-01T09:44:20.597Z,41.83
2019-05-01T09:47:26.640Z,39.07
2019-05-01T09:50:35.835Z,40.83
2019-05-01T09:53:47.955Z,43.70
2019-05-01T09:56:53.319Z,45.50
2019-05-01T09:59:58.563Z,43.23
2019-05-01T10:03:04.811Z,44.07
2019-05-01T10:06:12.746Z,39.27
2019-05-01T10:09:18.106Z,37.50
2019-05-01T10:12:23.352Z,46.37
2019-05-01T10:15:28.866Z,44.13
2019-05-01T10:18:35.245Z,41.30
2019-05-01T10:21:40.680Z,42.20
2019-05-01T10:24:48.277Z,47.83
2019-05-01T10:28:02.173Z,43.87
2019-05-01T10:31:14.937Z,48.70
2019-05-01T10:34:43.086Z,49.73
2019-05-01T10:37:49.047Z,44.97
2019-05-01T10:40:54.511Z,50.33
2019-05-01T10:43:59.764Z,44.83
2019-05-01T10:47:06.345Z,52.50
2019-05-01T10:50:11.740Z,40.20
2019-05-01T10:53:17.020Z,46.53
2019-05-01T10:56:22.214Z,48.20
2019-05-01T10:59:27.450Z,41.07
2019-05-01T11:02:32.699Z,45.23
2019-05-01T11:05:37.990Z,46.43
2019-05-01T11:08:43.264Z,50.33
2019-05-01T11:11:48.537Z,42.80
2019-05-01T11:14:54.026Z,47.63
2019-05-01T11:17:59.930Z,50.20
2019-05-01T11:21:05.453Z,46.47
2019-05-01T11:24:10.815Z,45.13
2019-05-01T11:27:17.815Z,40.50
2019-05-01T11:30:25.515Z,45.57
2019-05-01T11:34:04.970Z,47.67
2019-05-01T11:37:35.238Z,41.53
2019-05-01T11:40:53.128Z,44.17
2019-05-01T11:43:59.592Z,42.43
2019-05-01T11:47:04.789Z,44.80
2019-05-01T11:50:10.220Z,48.50
2019-05-01T11:53:15.459Z,41.60
2019-05-01T11:56:20.740Z,41.53
2019-05-01T11:59:26.014Z,41.37
2019-05-01T12:02:31.229Z,42.37
2019-05-01T12:05:37.243Z,38.73
2019-05-01T12:08:42.752Z,42.23
2019-05-01T12:11:50.155Z,40.13
2019-05-01T12:14:55.508Z,44.40
2019-05-01T12:18:01.739Z,43.43
2019-05-01T12:21:07.020Z,40.13
2019-05-01T12:24:12.218Z,37.83
2019-05-01T12:27:17.648Z,39.13
2019-05-01T12:30:23.449Z,41.43
2019-05-01T12:33:28.789Z,47.90
2019-05-01T12:36:36.531Z,39.70
2019-05-01T12:39:41.859Z,46.50
2019-05-01T12:42:48.823Z,44.50
2019-05-01T12:45:55.111Z,40.57
2019-05-01T12:49:04.538Z,42.53
2019-05-01T12:52:15.399Z,40.43
2019-05-01T12:55:40.167Z,41.87
2019-05-01T12:58:50.519Z,42.60
2019-05-01T13:01:55.838Z,47.53
2019-05-01T13:05:01.033Z,39.30
2019-05-01T13:08:07.824Z,43.27
2019-05-01T13:11:12.971Z,41.70
2019-05-01T13:14:18.212Z,39.57
2019-05-01T13:17:24.711Z,40.27
2019-05-01T13:20:29.926Z,39.07
2019-05-01T13:23:35.203Z,37.87
2019-05-01T13:26:48.834Z,38.70
2019-05-01T13:30:04.985Z,36.77
2019-05-01T13:33:46.096Z,40.10
2019-05-01T13:37:02.322Z,36.33
2019-05-01T13:40:17.661Z,37.77
2019-05-01T13:43:25.302Z,37.43
2019-05-01T13:46:30.568Z,37.17
2019-05-01T13:49:35.722Z,36.27
2019-05-01T13:52:40.898Z,38.33
2019-05-01T13:55:46.258Z,35.30
2019-05-01T13:58:51.459Z,38.70
2019-05-01T14:01:56.637Z,37.53
2019-05-01T14:05:01.798Z,40.90
2019-05-01T14:08:08.312Z,39.07
2019-05-01T14:11:13.556Z,37.63
2019-05-01T14:14:19.942Z,38.40
2019-05-01T14:17:25.097Z,32.63
2019-05-01T14:20:41.206Z,44.23
2019-05-01T14:24:11.266Z,42.70
2019-05-01T14:27:17.552Z,37.63
2019-05-01T14:30:22.813Z,37.43
2019-05-01T14:33:28.042Z,39.50
2019-05-01T14:36:34.842Z,40.10
2019-05-01T14:39:40.043Z,36.77
2019-05-01T14:42:45.271Z,39.60
2019-05-01T14:45:50.574Z,36.17
2019-05-01T14:48:57.639Z,36.83
2019-05-01T14:52:02.857Z,38.90
2019-05-01T14:55:08.434Z,38.13
2019-05-01T14:58:13.673Z,40.87
2019-05-01T15:01:18.877Z,36.03
2019-05-01T15:04:24.076Z,37.63
2019-05-01T15:07:42.140Z,34.60
2019-05-01T15:10:36.361Z,37.23
2019-05-01T15:14:05.521Z,33.87
2019-05-01T15:17:17.811Z,36.83
2019-05-01T15:20:23.102Z,34.73
2019-05-01T15:23:28.295Z,34.00
2019-05-01T15:26:33.435Z,36.13
2019-05-01T15:29:38.662Z,33.10
2019-05-01T15:32:43.861Z,35.10
2019-05-01T15:35:49.418Z,37.33
2019-05-01T15:38:56.085Z,31.03
2019-05-01T15:42:35.331Z,37.30
2019-05-01T15:45:40.647Z,34.10
2019-05-01T15:48:46.542Z,35.30
2019-05-01T15:51:52.031Z,32.27
2019-05-01T15:55:00.182Z,37.40
2019-05-01T15:58:11.117Z,31.27
2019-05-01T16:01:20.038Z,34.73
2019-05-01T16:04:27.571Z,32.43
2019-05-01T16:07:35.707Z,31.20
2019-05-01T16:10:54.000Z,38.10
2019-05-01T16:14:02.451Z,35.07
2019-05-01T16:17:10.898Z,32.50
2019-05-01T16:20:19.146Z,31.37
2019-05-01T16:23:29.236Z,32.13
2019-05-01T16:26:34.265Z,32.27
2019-05-01T16:29:42.155Z,34.97
2019-05-01T16:32:49.842Z,32.13
2019-05-01T16:35:56.677Z,32.63
2019-05-01T16:39:39.747Z,34.53
2019-05-01T16:42:46.965Z,37.17
2019-05-01T16:45:52.251Z,35.70
2019-05-01T16:49:01.743Z,36.67
2019-05-01T16:52:10.095Z,36.70
2019-05-01T16:55:16.136Z,37.57
2019-05-01T16:58:24.082Z,37.20
2019-05-01T17:01:38.543Z,40.27
2019-05-01T17:04:49.763Z,38.23
2019-05-01T17:08:35.520Z,40.67
2019-05-01T17:11:33.710Z,36.90
2019-05-01T17:14:40.807Z,41.37
2019-05-01T17:17:46.281Z,38.90
2019-05-01T17:20:53.740Z,41.57
2019-05-01T17:24:00.576Z,38.20
2019-05-01T17:27:09.208Z,40.00
2019-05-01T17:30:18.023Z,40.53
2019-05-01T17:33:24.677Z,39.17
2019-05-01T17:36:30.055Z,43.90
2019-05-01T17:39:36.867Z,41.97
2019-05-01T17:42:43.795Z,40.33
2019-05-01T17:45:49.051Z,41.80
2019-05-01T17:48:54.326Z,38.80
2019-05-01T17:52:01.316Z,39.50
2019-05-01T17:55:07.381Z,40.77
2019-05-01T17:58:12.581Z,41.57
2019-05-01T18:01:45.952Z,42.30
2019-05-01T18:05:09.915Z,42.07
2019-05-01T18:08:15.531Z,39.67
2019-05-01T18:11:20.810Z,40.20
2019-05-01T18:14:26.121Z,44.57
2019-05-01T18:17:31.397Z,46.27
2019-05-01T18:20:39.600Z,48.37
2019-05-01T18:24:18.869Z,43.57
2019-05-01T18:27:42.455Z,45.00
2019-05-01T18:30:51.680Z,47.07
2019-05-01T18:33:57.012Z,42.83
2019-05-01T18:37:09.670Z,41.87
2019-05-01T18:40:22.589Z,41.10
2019-05-01T18:43:32.067Z,45.37
2019-05-01T18:46:35.002Z,45.80
2019-05-01T18:49:40.192Z,45.33
2019-05-01T18:52:45.364Z,44.40
2019-05-01T18:55:50.628Z,45.27
2019-05-01T18:58:58.449Z,47.33
2019-05-01T19:02:04.037Z,48.10
2019-05-01T19:05:11.325Z,45.07
2019-05-01T19:08:17.919Z,53.67
2019-05-01T19:11:28.151Z,45.37
2019-05-01T19:14:42.404Z,44.80
2019-05-01T19:17:52.542Z,39.97
2019-05-01T19:21:00.046Z,47.70
2019-05-01T19:24:06.578Z,42.73
2019-05-01T19:27:14.209Z,39.40
2019-05-01T19:30:20.339Z,43.37
2019-05-01T19:33:26.625Z,45.80
2019-05-01T19:36:34.828Z,46.27
2019-05-01T19:39:44.459Z,42.50
2019-05-01T19:42:53.715Z,55.07
2019-05-01T19:46:01.422Z,41.80
2019-05-01T19:49:14.290Z,45.10
2019-05-01T19:52:20.851Z,42.87
2019-05-01T19:55:29.858Z,45.73
2019-05-01T19:58:37.780Z,43.73
2019-05-01T20:01:49.136Z,41.97
2019-05-01T20:04:52.941Z,37.40
2019-05-01T20:08:00.784Z,42.93
2019-05-01T20:11:11.115Z,45.23
2019-05-01T20:14:18.011Z,46.23
2019-05-01T20:17:28.611Z,45.00
2019-05-01T20:20:34.949Z,42.07
2019-05-01T20:23:42.070Z,35.40
2019-05-01T20:26:48.705Z,38.83
2019-05-01T20:29:56.586Z,38.73
2019-05-01T20:33:03.742Z,30.97
2019-05-01T20:36:10.340Z,39.60
2019-05-01T20:39:15.704Z,36.60
2019-05-01T20:42:21.673Z,39.20
2019-05-01T20:45:27.920Z,37.80
2019-05-01T20:48:33.103Z,40.20
2019-05-01T20:51:38.288Z,37.70
2019-05-01T20:54:43.502Z,40.27
2019-05-01T20:57:49.283Z,36.83
2019-05-01T21:00:58.957Z,33.60
2019-05-01T21:04:22.161Z,37.67
2019-05-01T21:07:31.173Z,37.87
2019-05-01T21:10:50.500Z,30.27
2019-05-01T21:13:56.635Z,32.60
2019-05-01T21:17:01.391Z,37.40
2019-05-01T21:20:06.793Z,33.67
2019-05-01T21:23:14.166Z,32.77
2019-05-01T21:26:18.984Z,33.20
2019-05-01T21:29:24.249Z,33.10
2019-05-01T21:32:29.470Z,31.67
2019-05-01T21:35:34.709Z,36.30
2019-05-01T21:38:39.909Z,35.47
2019-05-01T21:41:45.194Z,34.73
2019-05-01T21:44:50.365Z,39.30
2019-05-01T21:47:55.598Z,36.17
2019-05-01T21:51:03.315Z,40.07
2019-05-01T21:54:08.752Z,33.73
2019-05-01T21:57:17.447Z,37.43
2019-05-01T22:00:24.870Z,35.57
2019-05-01T22:03:30.318Z,36.70
2019-05-01T22:06:35.489Z,31.67
2019-05-01T22:09:41.148Z,40.57
2019-05-01T22:12:48.991Z,37.00
2019-05-01T22:15:59.042Z,37.60
2019-05-01T22:19:18.693Z,35.40
2019-05-01T22:22:33.111Z,37.67
2019-05-01T22:25:42.164Z,37.40
2019-05-01T22:28:54.924Z,41.23
2019-05-01T22:32:27.595Z,37.17
2019-05-01T22:35:36.434Z,37.20
2019-05-01T22:38:41.648Z,37.60
2019-05-01T22:41:46.850Z,36.73
2019-05-01T22:44:53.106Z,36.97
2019-05-01T22:47:58.313Z,34.17
2019-05-01T22:51:19.055Z,37.97
2019-05-01T22:54:25.398Z,42.50
2019-05-01T22:57:30.551Z,32.40
2019-05-01T23:00:46.913Z,34.47
2019-05-01T23:04:00.482Z,32.87
2019-05-01T23:07:05.713Z,33.00
2019-05-01T23:10:11.329Z,32.43
2019-05-01T23:13:16.488Z,30.80
2019-05-01T23:16:23.293Z,33.63
2019-05-01T23:19:29.621Z,37.53
2019-05-01T23:22:34.900Z,35.40
2019-05-01T23:25:41.151Z,37.43
2019-05-01T23:28:47.075Z,27.67
2019-05-01T23:31:52.269Z,29.27
2019-05-01T23:34:57.525Z,29.80
2019-05-01T23:38:02.717Z,30.60
2019-05-01T23:41:09.034Z,32.40
2019-05-01T23:44:14.308Z,32.13
2019-05-01T23:47:21.885Z,28.30
2019-05-01T23:50:27.042Z,32.50
2019-05-01T23:53:32.203Z,27.40
2019-05-01T23:56:37.350Z,33.23
2019-05-01T23:59:42.618Z,31.93
